sensor_id;sensor_type;location;lat;lon;timestamp;temperature;humidity
14735;DHT22;7458;49.002;8.472;2022-08-03T00:00:52;23.80;61.20
14735;DHT22;7458;49.002;8.472;2022-08-03T00:03:18;23.80;61.40
14735;DHT22;7458;49.002;8.472;2022-08-03T00:05:43;23.80;61.60
14735;DHT22;7458;49.002;8.472;2022-08-03T00:08:09;23.70;61.80
14735;DHT22;7458;49.002;8.472;2022-08-03T00:10:35;23.70;61.70
14735;DHT22;7458;49.002;8.472;2022-08-03T00:13:01;23.60;62.00
14735;DHT22;7458;49.002;8.472;2022-08-03T00:15:26;23.50;62.40
14735;DHT22;7458;49.002;8.472;2022-08-03T00:17:52;23.60;62.40
14735;DHT22;7458;49.002;8.472;2022-08-03T00:20:18;23.40;62.70
14735;DHT22;7458;49.002;8.472;2022-08-03T00:22:44;23.40;63.20
14735;DHT22;7458;49.002;8.472;2022-08-03T00:25:09;23.40;63.10
14735;DHT22;7458;49.002;8.472;2022-08-03T00:27:35;23.40;63.30
14735;DHT22;7458;49.002;8.472;2022-08-03T00:30:01;23.30;63.20
14735;DHT22;7458;49.002;8.472;2022-08-03T00:32:27;23.30;63.20
14735;DHT22;7458;49.002;8.472;2022-08-03T00:34:53;23.30;63.50
14735;DHT22;7458;49.002;8.472;2022-08-03T00:37:19;23.30;63.50
14735;DHT22;7458;49.002;8.472;2022-08-03T00:39:45;23.30;63.70
14735;DHT22;7458;49.002;8.472;2022-08-03T00:42:12;23.20;63.90
14735;DHT22;7458;49.002;8.472;2022-08-03T00:44:39;23.20;64.00
14735;DHT22;7458;49.002;8.472;2022-08-03T00:47:07;23.20;64.10
14735;DHT22;7458;49.002;8.472;2022-08-03T00:49:39;23.10;64.00
14735;DHT22;7458;49.002;8.472;2022-08-03T00:52:07;23.10;64.20
14735;DHT22;7458;49.002;8.472;2022-08-03T00:54:36;23.00;64.40
14735;DHT22;7458;49.002;8.472;2022-08-03T00:57:03;23.00;64.60
14735;DHT22;7458;49.002;8.472;2022-08-03T00:59:29;23.00;64.80
14735;DHT22;7458;49.002;8.472;2022-08-03T01:01:56;23.00;64.90
14735;DHT22;7458;49.002;8.472;2022-08-03T01:04:22;22.90;64.80
14735;DHT22;7458;49.002;8.472;2022-08-03T01:07:02;22.90;65.00
14735;DHT22;7458;49.002;8.472;2022-08-03T01:09:45;22.90;65.20
14735;DHT22;7458;49.002;8.472;2022-08-03T01:15:18;22.80;65.40
14735;DHT22;7458;49.002;8.472;2022-08-03T01:20:42;22.80;65.50
14735;DHT22;7458;49.002;8.472;2022-08-03T01:23:34;22.70;65.80
14735;DHT22;7458;49.002;8.472;2022-08-03T01:35:31;22.50;66.60
14735;DHT22;7458;49.002;8.472;2022-08-03T01:38:12;22.40;66.70
14735;DHT22;7458;49.002;8.472;2022-08-03T01:40:43;22.40;66.80
14735;DHT22;7458;49.002;8.472;2022-08-03T01:43:15;22.30;67.00
14735;DHT22;7458;49.002;8.472;2022-08-03T01:45:44;22.30;67.20
14735;DHT22;7458;49.002;8.472;2022-08-03T01:48:15;22.40;67.10
14735;DHT22;7458;49.002;8.472;2022-08-03T01:50:44;22.30;67.10
14735;DHT22;7458;49.002;8.472;2022-08-03T01:53:14;22.30;67.20
14735;DHT22;7458;49.002;8.472;2022-08-03T01:55:43;22.10;67.80
14735;DHT22;7458;49.002;8.472;2022-08-03T01:58:14;22.20;67.70
14735;DHT22;7458;49.002;8.472;2022-08-03T02:00:42;22.20;67.80
14735;DHT22;7458;49.002;8.472;2022-08-03T02:03:11;22.20;67.70
14735;DHT22;7458;49.002;8.472;2022-08-03T02:05:40;22.10;67.90
14735;DHT22;7458;49.002;8.472;2022-08-03T02:08:12;22.10;68.00
14735;DHT22;7458;49.002;8.472;2022-08-03T02:10:41;22.10;68.10
14735;DHT22;7458;49.002;8.472;2022-08-03T02:13:08;22.10;67.90
14735;DHT22;7458;49.002;8.472;2022-08-03T02:15:36;22.10;68.00
14735;DHT22;7458;49.002;8.472;2022-08-03T02:18:04;22.00;67.90
14735;DHT22;7458;49.002;8.472;2022-08-03T02:20:33;22.00;67.90
14735;DHT22;7458;49.002;8.472;2022-08-03T02:23:02;22.00;68.10
14735;DHT22;7458;49.002;8.472;2022-08-03T02:25:29;22.00;68.30
14735;DHT22;7458;49.002;8.472;2022-08-03T02:28:09;22.00;68.40
14735;DHT22;7458;49.002;8.472;2022-08-03T02:30:39;21.90;69.00
14735;DHT22;7458;49.002;8.472;2022-08-03T02:33:11;21.90;69.00
14735;DHT22;7458;49.002;8.472;2022-08-03T02:35:42;21.80;69.20
14735;DHT22;7458;49.002;8.472;2022-08-03T02:38:10;21.80;69.40
14735;DHT22;7458;49.002;8.472;2022-08-03T02:40:41;21.70;69.60
14735;DHT22;7458;49.002;8.472;2022-08-03T02:43:14;21.70;70.10
14735;DHT22;7458;49.002;8.472;2022-08-03T02:45:47;21.60;70.40
14735;DHT22;7458;49.002;8.472;2022-08-03T02:48:20;21.60;70.60
14735;DHT22;7458;49.002;8.472;2022-08-03T02:50:53;21.40;71.00
14735;DHT22;7458;49.002;8.472;2022-08-03T02:53:22;21.40;71.60
14735;DHT22;7458;49.002;8.472;2022-08-03T02:55:50;21.40;72.00
14735;DHT22;7458;49.002;8.472;2022-08-03T02:58:19;21.40;72.20
14735;DHT22;7458;49.002;8.472;2022-08-03T03:00:49;21.30;72.60
14735;DHT22;7458;49.002;8.472;2022-08-03T03:03:16;21.30;72.90
14735;DHT22;7458;49.002;8.472;2022-08-03T03:05:43;21.20;73.20
14735;DHT22;7458;49.002;8.472;2022-08-03T03:08:15;21.10;73.90
14735;DHT22;7458;49.002;8.472;2022-08-03T03:10:43;21.00;74.80
14735;DHT22;7458;49.002;8.472;2022-08-03T03:13:11;20.70;75.80
14735;DHT22;7458;49.002;8.472;2022-08-03T03:15:40;20.70;76.50
14735;DHT22;7458;49.002;8.472;2022-08-03T03:18:08;20.60;76.90
14735;DHT22;7458;49.002;8.472;2022-08-03T03:20:36;20.50;77.60
14735;DHT22;7458;49.002;8.472;2022-08-03T03:23:04;20.50;78.00
14735;DHT22;7458;49.002;8.472;2022-08-03T03:25:31;20.50;78.40
14735;DHT22;7458;49.002;8.472;2022-08-03T03:27:59;20.50;78.60
14735;DHT22;7458;49.002;8.472;2022-08-03T03:30:26;20.40;79.20
14735;DHT22;7458;49.002;8.472;2022-08-03T03:32:53;20.50;79.20
14735;DHT22;7458;49.002;8.472;2022-08-03T03:35:20;20.50;79.00
14735;DHT22;7458;49.002;8.472;2022-08-03T03:37:46;20.50;79.10
14735;DHT22;7458;49.002;8.472;2022-08-03T03:40:12;20.60;79.30
14735;DHT22;7458;49.002;8.472;2022-08-03T03:42:39;20.70;79.10
14735;DHT22;7458;49.002;8.472;2022-08-03T03:45:06;20.70;79.10
14735;DHT22;7458;49.002;8.472;2022-08-03T03:47:34;20.70;78.90
14735;DHT22;7458;49.002;8.472;2022-08-03T03:50:04;20.70;78.80
14735;DHT22;7458;49.002;8.472;2022-08-03T03:52:32;20.70;78.80
14735;DHT22;7458;49.002;8.472;2022-08-03T03:54:58;20.60;78.90
14735;DHT22;7458;49.002;8.472;2022-08-03T03:57:24;20.60;79.00
14735;DHT22;7458;49.002;8.472;2022-08-03T03:59:50;20.50;79.20
14735;DHT22;7458;49.002;8.472;2022-08-03T04:02:16;20.60;79.30
14735;DHT22;7458;49.002;8.472;2022-08-03T04:04:42;20.60;79.20
14735;DHT22;7458;49.002;8.472;2022-08-03T04:07:27;20.60;79.10
14735;DHT22;7458;49.002;8.472;2022-08-03T04:10:21;20.60;79.10
14735;DHT22;7458;49.002;8.472;2022-08-03T04:13:09;20.70;79.00
14735;DHT22;7458;49.002;8.472;2022-08-03T04:15:39;20.70;78.80
14735;DHT22;7458;49.002;8.472;2022-08-03T04:18:08;20.70;78.90
14735;DHT22;7458;49.002;8.472;2022-08-03T04:20:38;20.60;78.80
14735;DHT22;7458;49.002;8.472;2022-08-03T04:23:10;20.70;78.80
14735;DHT22;7458;49.002;8.472;2022-08-03T04:25:39;20.70;78.80
14735;DHT22;7458;49.002;8.472;2022-08-03T04:28:07;20.70;78.80
14735;DHT22;7458;49.002;8.472;2022-08-03T04:30:36;20.70;78.90
14735;DHT22;7458;49.002;8.472;2022-08-03T04:33:05;20.70;79.10
14735;DHT22;7458;49.002;8.472;2022-08-03T04:35:33;20.70;79.50
14735;DHT22;7458;49.002;8.472;2022-08-03T04:38:05;20.60;79.90
14735;DHT22;7458;49.002;8.472;2022-08-03T04:40:36;20.60;79.90
14735;DHT22;7458;49.002;8.472;2022-08-03T04:43:07;20.60;80.10
14735;DHT22;7458;49.002;8.472;2022-08-03T04:45:36;20.60;80.50
14735;DHT22;7458;49.002;8.472;2022-08-03T04:48:04;20.60;80.40
14735;DHT22;7458;49.002;8.472;2022-08-03T04:50:30;20.60;80.20
14735;DHT22;7458;49.002;8.472;2022-08-03T04:52:56;20.60;80.10
14735;DHT22;7458;49.002;8.472;2022-08-03T04:55:30;20.70;80.10
14735;DHT22;7458;49.002;8.472;2022-08-03T04:57:58;20.70;80.20
14735;DHT22;7458;49.002;8.472;2022-08-03T05:00:26;20.60;80.10
14735;DHT22;7458;49.002;8.472;2022-08-03T05:02:52;20.70;81.00
14735;DHT22;7458;49.002;8.472;2022-08-03T05:05:19;20.80;80.10
14735;DHT22;7458;49.002;8.472;2022-08-03T05:07:45;20.80;79.90
14735;DHT22;7458;49.002;8.472;2022-08-03T05:10:12;20.90;79.80
14735;DHT22;7458;49.002;8.472;2022-08-03T05:12:39;20.90;79.80
14735;DHT22;7458;49.002;8.472;2022-08-03T05:15:06;21.00;79.70
14735;DHT22;7458;49.002;8.472;2022-08-03T05:17:32;21.10;79.70
14735;DHT22;7458;49.002;8.472;2022-08-03T05:19:59;21.10;79.10
14735;DHT22;7458;49.002;8.472;2022-08-03T05:22:25;21.10;78.80
14735;DHT22;7458;49.002;8.472;2022-08-03T05:24:51;21.10;78.80
14735;DHT22;7458;49.002;8.472;2022-08-03T05:27:16;21.20;78.90
14735;DHT22;7458;49.002;8.472;2022-08-03T05:29:46;21.20;79.10
14735;DHT22;7458;49.002;8.472;2022-08-03T05:32:14;21.30;79.20
14735;DHT22;7458;49.002;8.472;2022-08-03T05:34:41;21.30;78.90
14735;DHT22;7458;49.002;8.472;2022-08-03T05:37:06;21.40;78.60
14735;DHT22;7458;49.002;8.472;2022-08-03T05:39:33;21.50;78.30
14735;DHT22;7458;49.002;8.472;2022-08-03T05:41:59;21.60;78.00
14735;DHT22;7458;49.002;8.472;2022-08-03T05:44:25;21.60;78.00
14735;DHT22;7458;49.002;8.472;2022-08-03T05:46:51;21.60;78.00
14735;DHT22;7458;49.002;8.472;2022-08-03T05:49:17;21.70;77.90
14735;DHT22;7458;49.002;8.472;2022-08-03T05:51:44;21.70;77.70
14735;DHT22;7458;49.002;8.472;2022-08-03T05:54:10;21.70;77.60
14735;DHT22;7458;49.002;8.472;2022-08-03T05:56:37;21.80;77.90
14735;DHT22;7458;49.002;8.472;2022-08-03T05:59:05;21.80;77.40
14735;DHT22;7458;49.002;8.472;2022-08-03T06:01:31;21.70;77.30
14735;DHT22;7458;49.002;8.472;2022-08-03T06:03:57;21.80;77.20
14735;DHT22;7458;49.002;8.472;2022-08-03T06:06:24;21.90;76.80
14735;DHT22;7458;49.002;8.472;2022-08-03T06:08:50;22.00;76.20
14735;DHT22;7458;49.002;8.472;2022-08-03T06:11:16;22.20;75.60
14735;DHT22;7458;49.002;8.472;2022-08-03T06:13:42;22.30;74.80
14735;DHT22;7458;49.002;8.472;2022-08-03T06:16:08;22.40;74.10
14735;DHT22;7458;49.002;8.472;2022-08-03T06:18:35;22.50;73.20
14735;DHT22;7458;49.002;8.472;2022-08-03T06:21:01;22.70;72.50
14735;DHT22;7458;49.002;8.472;2022-08-03T06:23:27;22.80;72.00
14735;DHT22;7458;49.002;8.472;2022-08-03T06:25:53;23.00;71.40
14735;DHT22;7458;49.002;8.472;2022-08-03T06:28:19;23.30;70.80
14735;DHT22;7458;49.002;8.472;2022-08-03T06:30:45;24.50;69.50
14735;DHT22;7458;49.002;8.472;2022-08-03T06:33:11;27.70;61.80
14735;DHT22;7458;49.002;8.472;2022-08-03T06:35:37;30.30;54.90
14735;DHT22;7458;49.002;8.472;2022-08-03T06:38:02;32.30;50.30
14735;DHT22;7458;49.002;8.472;2022-08-03T06:40:28;34.10;46.20
14735;DHT22;7458;49.002;8.472;2022-08-03T06:42:56;34.90;42.20
14735;DHT22;7458;49.002;8.472;2022-08-03T06:45:24;35.50;39.90
14735;DHT22;7458;49.002;8.472;2022-08-03T06:48:04;36.10;39.10
14735;DHT22;7458;49.002;8.472;2022-08-03T06:50:32;36.70;36.50
14735;DHT22;7458;49.002;8.472;2022-08-03T06:52:59;37.10;36.50
14735;DHT22;7458;49.002;8.472;2022-08-03T06:57:52;37.90;34.40
14735;DHT22;7458;49.002;8.472;2022-08-03T07:00:21;37.70;33.60
14735;DHT22;7458;49.002;8.472;2022-08-03T07:02:47;37.60;33.50
14735;DHT22;7458;49.002;8.472;2022-08-03T07:05:13;37.80;33.30
14735;DHT22;7458;49.002;8.472;2022-08-03T07:07:40;38.00;32.70
14735;DHT22;7458;49.002;8.472;2022-08-03T07:10:06;37.80;33.30
14735;DHT22;7458;49.002;8.472;2022-08-03T07:12:34;38.80;33.30
14735;DHT22;7458;49.002;8.472;2022-08-03T07:15:01;39.30;32.60
14735;DHT22;7458;49.002;8.472;2022-08-03T07:17:32;38.60;32.10
14735;DHT22;7458;49.002;8.472;2022-08-03T07:20:00;37.90;33.40
14735;DHT22;7458;49.002;8.472;2022-08-03T07:22:27;36.90;34.50
14735;DHT22;7458;49.002;8.472;2022-08-03T07:24:53;35.90;36.20
14735;DHT22;7458;49.002;8.472;2022-08-03T07:27:19;34.50;37.90
14735;DHT22;7458;49.002;8.472;2022-08-03T07:29:45;33.60;39.50
14735;DHT22;7458;49.002;8.472;2022-08-03T07:32:11;32.90;40.60
14735;DHT22;7458;49.002;8.472;2022-08-03T07:34:37;32.50;41.20
14735;DHT22;7458;49.002;8.472;2022-08-03T07:37:03;31.90;43.00
14735;DHT22;7458;49.002;8.472;2022-08-03T07:39:28;32.20;43.10
14735;DHT22;7458;49.002;8.472;2022-08-03T07:41:54;32.30;43.50
14735;DHT22;7458;49.002;8.472;2022-08-03T07:44:20;32.00;43.10
14735;DHT22;7458;49.002;8.472;2022-08-03T07:46:46;31.60;43.70
14735;DHT22;7458;49.002;8.472;2022-08-03T07:49:12;31.60;44.20
14735;DHT22;7458;49.002;8.472;2022-08-03T07:51:38;31.60;44.50
14735;DHT22;7458;49.002;8.472;2022-08-03T07:54:04;31.80;44.70
14735;DHT22;7458;49.002;8.472;2022-08-03T07:56:31;31.70;44.60
14735;DHT22;7458;49.002;8.472;2022-08-03T07:58:57;31.50;45.10
14735;DHT22;7458;49.002;8.472;2022-08-03T08:01:25;31.40;45.70
14735;DHT22;7458;49.002;8.472;2022-08-03T08:03:50;31.10;44.90
14735;DHT22;7458;49.002;8.472;2022-08-03T08:06:16;31.40;45.00
14735;DHT22;7458;49.002;8.472;2022-08-03T08:08:42;31.70;45.20
14735;DHT22;7458;49.002;8.472;2022-08-03T08:11:08;31.90;44.80
14735;DHT22;7458;49.002;8.472;2022-08-03T08:13:34;32.40;44.10
14735;DHT22;7458;49.002;8.472;2022-08-03T08:16:02;32.60;44.50
14735;DHT22;7458;49.002;8.472;2022-08-03T08:18:28;33.00;43.70
14735;DHT22;7458;49.002;8.472;2022-08-03T08:20:54;32.80;43.40
14735;DHT22;7458;49.002;8.472;2022-08-03T08:23:20;33.10;44.30
14735;DHT22;7458;49.002;8.472;2022-08-03T08:25:50;33.70;43.50
14735;DHT22;7458;49.002;8.472;2022-08-03T08:28:17;33.70;41.60
14735;DHT22;7458;49.002;8.472;2022-08-03T08:30:44;33.40;42.40
14735;DHT22;7458;49.002;8.472;2022-08-03T08:33:10;32.40;40.70
14735;DHT22;7458;49.002;8.472;2022-08-03T08:35:36;34.00;41.90
14735;DHT22;7458;49.002;8.472;2022-08-03T08:38:02;34.10;41.50
14735;DHT22;7458;49.002;8.472;2022-08-03T08:40:28;34.20;41.30
14735;DHT22;7458;49.002;8.472;2022-08-03T08:42:54;34.20;41.00
14735;DHT22;7458;49.002;8.472;2022-08-03T08:45:20;34.70;44.90
14735;DHT22;7458;49.002;8.472;2022-08-03T08:47:47;34.80;43.70
14735;DHT22;7458;49.002;8.472;2022-08-03T08:50:19;35.20;41.00
14735;DHT22;7458;49.002;8.472;2022-08-03T08:52:48;36.60;40.50
14735;DHT22;7458;49.002;8.472;2022-08-03T08:55:19;35.20;40.10
14735;DHT22;7458;49.002;8.472;2022-08-03T08:57:52;35.60;40.00
14735;DHT22;7458;49.002;8.472;2022-08-03T09:00:23;36.00;39.70
14735;DHT22;7458;49.002;8.472;2022-08-03T09:02:49;35.70;38.80
14735;DHT22;7458;49.002;8.472;2022-08-03T09:05:16;35.50;39.40
14735;DHT22;7458;49.002;8.472;2022-08-03T09:07:44;35.20;39.50
14735;DHT22;7458;49.002;8.472;2022-08-03T09:10:16;35.40;39.30
14735;DHT22;7458;49.002;8.472;2022-08-03T09:12:49;35.70;39.10
14735;DHT22;7458;49.002;8.472;2022-08-03T09:15:22;35.60;38.60
14735;DHT22;7458;49.002;8.472;2022-08-03T09:17:52;35.70;39.00
14735;DHT22;7458;49.002;8.472;2022-08-03T09:20:22;36.00;38.80
14735;DHT22;7458;49.002;8.472;2022-08-03T09:22:57;35.90;38.30
14735;DHT22;7458;49.002;8.472;2022-08-03T09:28:16;35.70;39.10
14735;DHT22;7458;49.002;8.472;2022-08-03T09:30:45;36.30;38.40
14735;DHT22;7458;49.002;8.472;2022-08-03T09:33:23;36.20;38.30
14735;DHT22;7458;49.002;8.472;2022-08-03T09:35:49;36.00;37.30
14735;DHT22;7458;49.002;8.472;2022-08-03T09:38:18;36.30;37.60
14735;DHT22;7458;49.002;8.472;2022-08-03T09:40:53;36.50;45.20
14735;DHT22;7458;49.002;8.472;2022-08-03T09:43:21;36.50;37.30
14735;DHT22;7458;49.002;8.472;2022-08-03T09:45:48;36.40;38.10
14735;DHT22;7458;49.002;8.472;2022-08-03T09:48:25;36.30;37.50
14735;DHT22;7458;49.002;8.472;2022-08-03T09:50:57;36.40;36.70
14735;DHT22;7458;49.002;8.472;2022-08-03T09:53:26;36.30;37.20
14735;DHT22;7458;49.002;8.472;2022-08-03T09:58:25;36.40;37.10
14735;DHT22;7458;49.002;8.472;2022-08-03T10:00:58;36.40;36.70
14735;DHT22;7458;49.002;8.472;2022-08-03T10:03:29;36.30;37.30
14735;DHT22;7458;49.002;8.472;2022-08-03T10:05:57;36.60;36.60
14735;DHT22;7458;49.002;8.472;2022-08-03T10:08:24;36.60;35.60
14735;DHT22;7458;49.002;8.472;2022-08-03T10:10:51;36.80;36.50
14735;DHT22;7458;49.002;8.472;2022-08-03T10:13:22;37.00;36.30
14735;DHT22;7458;49.002;8.472;2022-08-03T10:15:48;37.00;35.50
14735;DHT22;7458;49.002;8.472;2022-08-03T10:18:14;37.00;35.70
14735;DHT22;7458;49.002;8.472;2022-08-03T10:20:44;36.90;35.40
14735;DHT22;7458;49.002;8.472;2022-08-03T10:23:16;36.80;35.70
14735;DHT22;7458;49.002;8.472;2022-08-03T10:25:48;37.00;36.20
14735;DHT22;7458;49.002;8.472;2022-08-03T10:28:20;37.00;35.70
14735;DHT22;7458;49.002;8.472;2022-08-03T10:30:49;36.90;35.30
14735;DHT22;7458;49.002;8.472;2022-08-03T10:33:23;37.00;34.90
14735;DHT22;7458;49.002;8.472;2022-08-03T10:35:55;37.40;35.30
14735;DHT22;7458;49.002;8.472;2022-08-03T10:38:29;37.40;35.10
14735;DHT22;7458;49.002;8.472;2022-08-03T10:41:02;37.40;35.00
14735;DHT22;7458;49.002;8.472;2022-08-03T10:46:38;37.80;34.30
14735;DHT22;7458;49.002;8.472;2022-08-03T10:49:06;37.90;34.60
14735;DHT22;7458;49.002;8.472;2022-08-03T10:51:33;38.10;34.00
14735;DHT22;7458;49.002;8.472;2022-08-03T10:53:59;38.10;33.70
14735;DHT22;7458;49.002;8.472;2022-08-03T10:59:16;37.90;33.60
14735;DHT22;7458;49.002;8.472;2022-08-03T11:01:50;37.80;34.10
14735;DHT22;7458;49.002;8.472;2022-08-03T11:04:21;38.10;34.00
14735;DHT22;7458;49.002;8.472;2022-08-03T11:09:42;38.40;33.50
14735;DHT22;7458;49.002;8.472;2022-08-03T11:12:30;38.30;33.20
14735;DHT22;7458;49.002;8.472;2022-08-03T11:15:05;38.30;33.60
14735;DHT22;7458;49.002;8.472;2022-08-03T11:17:34;38.30;36.40
14735;DHT22;7458;49.002;8.472;2022-08-03T11:20:01;38.50;33.70
14735;DHT22;7458;49.002;8.472;2022-08-03T11:22:47;38.60;32.80
14735;DHT22;7458;49.002;8.472;2022-08-03T11:25:15;38.60;33.20
14735;DHT22;7458;49.002;8.472;2022-08-03T11:27:41;38.80;32.80
14735;DHT22;7458;49.002;8.472;2022-08-03T11:30:22;38.50;31.90
14735;DHT22;7458;49.002;8.472;2022-08-03T11:32:57;38.40;31.70
14735;DHT22;7458;49.002;8.472;2022-08-03T11:35:31;38.60;31.90
14735;DHT22;7458;49.002;8.472;2022-08-03T11:38:09;38.50;32.40
14735;DHT22;7458;49.002;8.472;2022-08-03T11:40:42;38.30;32.50
14735;DHT22;7458;49.002;8.472;2022-08-03T11:48:40;38.40;32.30
14735;DHT22;7458;49.002;8.472;2022-08-03T11:53:56;38.50;32.50
14735;DHT22;7458;49.002;8.472;2022-08-03T11:56:23;38.60;32.50
14735;DHT22;7458;49.002;8.472;2022-08-03T11:58:52;38.60;32.20
14735;DHT22;7458;49.002;8.472;2022-08-03T12:01:21;38.50;32.40
14735;DHT22;7458;49.002;8.472;2022-08-03T12:03:48;38.50;32.20
14735;DHT22;7458;49.002;8.472;2022-08-03T12:06:16;38.70;32.30
14735;DHT22;7458;49.002;8.472;2022-08-03T12:08:43;38.70;32.40
14735;DHT22;7458;49.002;8.472;2022-08-03T12:11:12;38.50;32.30
14735;DHT22;7458;49.002;8.472;2022-08-03T12:13:46;38.50;31.90
14735;DHT22;7458;49.002;8.472;2022-08-03T12:16:23;38.50;32.00
14735;DHT22;7458;49.002;8.472;2022-08-03T12:19:04;38.40;32.60
14735;DHT22;7458;49.002;8.472;2022-08-03T12:21:33;38.50;32.80
14735;DHT22;7458;49.002;8.472;2022-08-03T12:24:03;38.50;33.00
14735;DHT22;7458;49.002;8.472;2022-08-03T12:29:21;38.30;32.90
14735;DHT22;7458;49.002;8.472;2022-08-03T12:31:50;38.40;33.20
14735;DHT22;7458;49.002;8.472;2022-08-03T12:34:16;38.70;32.70
14735;DHT22;7458;49.002;8.472;2022-08-03T12:36:50;38.70;32.50
14735;DHT22;7458;49.002;8.472;2022-08-03T12:39:22;38.60;32.40
14735;DHT22;7458;49.002;8.472;2022-08-03T12:41:53;38.40;32.90
14735;DHT22;7458;49.002;8.472;2022-08-03T12:44:29;38.30;31.90
14735;DHT22;7458;49.002;8.472;2022-08-03T12:46:57;38.30;31.60
14735;DHT22;7458;49.002;8.472;2022-08-03T12:49:24;38.00;32.30
14735;DHT22;7458;49.002;8.472;2022-08-03T12:54:20;37.80;32.60
14735;DHT22;7458;49.002;8.472;2022-08-03T12:57:04;37.70;33.00
14735;DHT22;7458;49.002;8.472;2022-08-03T13:01:59;37.40;33.60
14735;DHT22;7458;49.002;8.472;2022-08-03T13:04:33;37.20;33.60
14735;DHT22;7458;49.002;8.472;2022-08-03T13:07:04;37.30;33.70
14735;DHT22;7458;49.002;8.472;2022-08-03T13:09:47;37.50;34.20
14735;DHT22;7458;49.002;8.472;2022-08-03T13:12:17;37.60;33.60
14735;DHT22;7458;49.002;8.472;2022-08-03T13:14:46;37.60;33.60
14735;DHT22;7458;49.002;8.472;2022-08-03T13:17:13;37.30;33.60
14735;DHT22;7458;49.002;8.472;2022-08-03T13:19:41;37.20;34.20
14735;DHT22;7458;49.002;8.472;2022-08-03T13:22:16;37.40;34.30
14735;DHT22;7458;49.002;8.472;2022-08-03T13:24:47;37.40;34.00
14735;DHT22;7458;49.002;8.472;2022-08-03T13:27:15;37.50;34.00
14735;DHT22;7458;49.002;8.472;2022-08-03T13:29:42;37.50;33.60
14735;DHT22;7458;49.002;8.472;2022-08-03T13:32:08;37.20;33.60
14735;DHT22;7458;49.002;8.472;2022-08-03T13:34:35;37.10;34.10
14735;DHT22;7458;49.002;8.472;2022-08-03T13:37:01;37.20;34.10
14735;DHT22;7458;49.002;8.472;2022-08-03T13:39:27;37.20;34.20
14735;DHT22;7458;49.002;8.472;2022-08-03T13:41:53;37.40;34.60
14735;DHT22;7458;49.002;8.472;2022-08-03T13:44:19;37.50;34.40
14735;DHT22;7458;49.002;8.472;2022-08-03T13:46:46;37.30;33.60
14735;DHT22;7458;49.002;8.472;2022-08-03T13:49:12;37.30;33.60
14735;DHT22;7458;49.002;8.472;2022-08-03T13:51:39;37.40;33.50
14735;DHT22;7458;49.002;8.472;2022-08-03T13:54:05;37.30;34.30
14735;DHT22;7458;49.002;8.472;2022-08-03T13:56:31;37.10;33.20
14735;DHT22;7458;49.002;8.472;2022-08-03T13:58:57;37.00;33.70
14735;DHT22;7458;49.002;8.472;2022-08-03T14:01:24;37.00;33.80
14735;DHT22;7458;49.002;8.472;2022-08-03T14:03:51;37.10;33.50
14735;DHT22;7458;49.002;8.472;2022-08-03T14:06:21;37.00;33.70
14735;DHT22;7458;49.002;8.472;2022-08-03T14:08:48;36.90;34.10
14735;DHT22;7458;49.002;8.472;2022-08-03T14:11:15;36.90;33.60
14735;DHT22;7458;49.002;8.472;2022-08-03T14:13:42;36.80;34.10
14735;DHT22;7458;49.002;8.472;2022-08-03T14:16:09;36.70;34.00
14735;DHT22;7458;49.002;8.472;2022-08-03T14:18:35;36.90;33.80
14735;DHT22;7458;49.002;8.472;2022-08-03T14:21:03;36.80;33.50
14735;DHT22;7458;49.002;8.472;2022-08-03T14:23:30;36.80;33.90
14735;DHT22;7458;49.002;8.472;2022-08-03T14:25:56;36.70;33.80
14735;DHT22;7458;49.002;8.472;2022-08-03T14:28:23;36.60;34.20
14735;DHT22;7458;49.002;8.472;2022-08-03T14:30:50;36.50;34.10
14735;DHT22;7458;49.002;8.472;2022-08-03T14:33:17;36.70;34.30
14735;DHT22;7458;49.002;8.472;2022-08-03T14:35:43;36.70;34.00
14735;DHT22;7458;49.002;8.472;2022-08-03T14:38:09;36.80;33.60
14735;DHT22;7458;49.002;8.472;2022-08-03T14:40:34;36.80;33.80
14735;DHT22;7458;49.002;8.472;2022-08-03T14:43:00;36.90;33.90
14735;DHT22;7458;49.002;8.472;2022-08-03T14:45:26;36.90;33.90
14735;DHT22;7458;49.002;8.472;2022-08-03T14:47:52;36.90;33.80
14735;DHT22;7458;49.002;8.472;2022-08-03T14:50:18;36.80;33.60
14735;DHT22;7458;49.002;8.472;2022-08-03T14:52:44;36.70;33.80
14735;DHT22;7458;49.002;8.472;2022-08-03T14:55:10;36.80;33.40
14735;DHT22;7458;49.002;8.472;2022-08-03T14:57:35;36.60;33.40
14735;DHT22;7458;49.002;8.472;2022-08-03T15:00:01;36.40;34.20
14735;DHT22;7458;49.002;8.472;2022-08-03T15:02:28;36.40;34.30
14735;DHT22;7458;49.002;8.472;2022-08-03T15:04:54;36.60;34.10
14735;DHT22;7458;49.002;8.472;2022-08-03T15:07:20;36.70;34.20
14735;DHT22;7458;49.002;8.472;2022-08-03T15:09:46;36.60;34.20
14735;DHT22;7458;49.002;8.472;2022-08-03T15:12:12;36.60;34.20
14735;DHT22;7458;49.002;8.472;2022-08-03T15:14:38;36.60;34.40
14735;DHT22;7458;49.002;8.472;2022-08-03T15:17:04;36.70;34.00
14735;DHT22;7458;49.002;8.472;2022-08-03T15:19:30;36.70;34.20
14735;DHT22;7458;49.002;8.472;2022-08-03T15:21:56;36.60;34.30
14735;DHT22;7458;49.002;8.472;2022-08-03T15:24:22;36.60;33.90
14735;DHT22;7458;49.002;8.472;2022-08-03T15:26:47;36.50;33.80
14735;DHT22;7458;49.002;8.472;2022-08-03T15:29:14;36.50;34.30
14735;DHT22;7458;49.002;8.472;2022-08-03T15:31:40;36.50;34.30
14735;DHT22;7458;49.002;8.472;2022-08-03T15:34:06;36.50;34.10
14735;DHT22;7458;49.002;8.472;2022-08-03T15:36:31;36.50;34.10
14735;DHT22;7458;49.002;8.472;2022-08-03T15:38:57;36.40;34.50
14735;DHT22;7458;49.002;8.472;2022-08-03T15:41:23;36.40;34.30
14735;DHT22;7458;49.002;8.472;2022-08-03T15:43:49;36.50;34.30
14735;DHT22;7458;49.002;8.472;2022-08-03T15:46:17;36.60;34.10
14735;DHT22;7458;49.002;8.472;2022-08-03T15:48:43;36.50;34.10
14735;DHT22;7458;49.002;8.472;2022-08-03T15:51:10;36.60;34.10
14735;DHT22;7458;49.002;8.472;2022-08-03T15:53:36;36.60;34.20
14735;DHT22;7458;49.002;8.472;2022-08-03T15:56:03;36.50;33.60
14735;DHT22;7458;49.002;8.472;2022-08-03T15:58:32;36.60;34.00
14735;DHT22;7458;49.002;8.472;2022-08-03T16:00:59;36.60;34.20
14735;DHT22;7458;49.002;8.472;2022-08-03T16:03:26;36.60;34.30
14735;DHT22;7458;49.002;8.472;2022-08-03T16:06:05;36.50;34.30
14735;DHT22;7458;49.002;8.472;2022-08-03T16:08:32;36.60;34.30
14735;DHT22;7458;49.002;8.472;2022-08-03T16:10:59;36.60;34.30
14735;DHT22;7458;49.002;8.472;2022-08-03T16:13:26;36.60;34.00
14735;DHT22;7458;49.002;8.472;2022-08-03T16:15:52;36.60;34.20
14735;DHT22;7458;49.002;8.472;2022-08-03T16:18:19;36.50;33.80
14735;DHT22;7458;49.002;8.472;2022-08-03T16:20:46;36.40;34.00
14735;DHT22;7458;49.002;8.472;2022-08-03T16:23:13;36.40;34.30
14735;DHT22;7458;49.002;8.472;2022-08-03T16:25:40;36.40;33.90
14735;DHT22;7458;49.002;8.472;2022-08-03T16:28:08;36.40;34.10
14735;DHT22;7458;49.002;8.472;2022-08-03T16:30:35;36.40;34.10
14735;DHT22;7458;49.002;8.472;2022-08-03T16:33:00;36.40;34.60
14735;DHT22;7458;49.002;8.472;2022-08-03T16:35:26;36.30;33.70
14735;DHT22;7458;49.002;8.472;2022-08-03T16:37:52;36.30;33.80
14735;DHT22;7458;49.002;8.472;2022-08-03T16:40:18;36.30;34.20